createdAt,value
2019-03-21T00:00:49.448Z,6.00
2019-03-21T00:03:19.926Z,6.30
2019-03-21T00:05:50.627Z,6.30
2019-03-21T00:08:21.726Z,6.30
2019-03-21T00:11:19.170Z,6.40
2019-03-21T00:13:50.588Z,6.10
2019-03-21T00:16:22.138Z,6.10
2019-03-21T00:18:52.731Z,6.10
2019-03-21T00:21:23.580Z,6.10
2019-03-21T00:23:54.826Z,6.00
2019-03-21T00:26:25.559Z,6.30
2019-03-21T00:28:55.789Z,6.30
2019-03-21T00:31:26.436Z,6.10
2019-03-21T00:33:56.598Z,6.10
2019-03-21T00:36:26.962Z,6.00
2019-03-21T00:38:57.287Z,6.10
2019-03-21T00:41:27.625Z,6.20
2019-03-21T00:43:58.070Z,6.00
2019-03-21T00:46:28.139Z,6.30
2019-03-21T00:48:58.372Z,6.40
2019-03-21T00:51:28.670Z,6.20
2019-03-21T00:53:59.073Z,6.20
2019-03-21T00:56:29.729Z,6.20
2019-03-21T00:58:59.932Z,6.00
2019-03-21T01:01:48.941Z,6.10
2019-03-21T01:04:19.255Z,6.10
2019-03-21T01:06:49.898Z,6.10
2019-03-21T01:09:20.258Z,6.10
2019-03-21T01:11:51.234Z,6.00
2019-03-21T01:14:29.708Z,6.10
2019-03-21T01:16:54.320Z,5.90
2019-03-21T01:19:24.759Z,5.90
2019-03-21T01:21:55.194Z,5.90
2019-03-21T01:24:26.189Z,5.80
2019-03-21T01:26:57.253Z,5.70
2019-03-21T01:29:27.864Z,5.70
2019-03-21T01:31:58.119Z,5.90
2019-03-21T01:34:28.630Z,5.70
2019-03-21T01:36:58.893Z,5.60
2019-03-21T01:39:29.050Z,5.60
2019-03-21T01:41:59.351Z,5.60
2019-03-21T01:44:40.639Z,5.70
2019-03-21T01:47:02.314Z,5.70
2019-03-21T01:49:32.601Z,5.80
2019-03-21T01:52:03.290Z,5.80
2019-03-21T01:54:33.604Z,5.70
2019-03-21T01:57:04.421Z,5.70
2019-03-21T01:59:35.318Z,5.70
2019-03-21T02:02:05.682Z,5.50
2019-03-21T02:04:35.917Z,5.60
2019-03-21T02:07:06.098Z,5.50
2019-03-21T02:09:36.352Z,5.60
2019-03-21T02:12:07.071Z,5.70
2019-03-21T02:14:37.316Z,5.70
2019-03-21T02:17:07.933Z,5.60
2019-03-21T02:19:38.155Z,5.60
2019-03-21T02:22:08.733Z,5.60
2019-03-21T02:24:40.873Z,5.50
2019-03-21T02:27:11.026Z,5.60
2019-03-21T02:29:41.418Z,5.70
2019-03-21T02:32:11.698Z,5.50
2019-03-21T02:34:42.627Z,5.50
2019-03-21T02:37:12.931Z,5.50
2019-03-21T02:39:58.282Z,5.60
2019-03-21T02:42:15.670Z,5.50
2019-03-21T02:44:45.980Z,5.50
2019-03-21T02:47:16.237Z,5.30
2019-03-21T02:52:18.549Z,5.40
2019-03-21T02:54:48.829Z,5.40
2019-03-21T02:57:20.053Z,5.40
2019-03-21T02:59:50.192Z,5.40
2019-03-21T03:02:20.792Z,5.40
2019-03-21T03:04:51.522Z,5.40
2019-03-21T03:07:21.752Z,5.40
2019-03-21T03:09:51.956Z,5.40
2019-03-21T03:12:22.197Z,5.40
2019-03-21T03:14:52.794Z,5.40
2019-03-21T03:17:23.052Z,5.40
2019-03-21T03:19:53.660Z,5.40
2019-03-21T03:22:24.312Z,5.30
2019-03-21T03:24:54.558Z,5.30
2019-03-21T03:27:24.750Z,5.20
2019-03-21T03:29:55.172Z,5.20
2019-03-21T03:32:25.822Z,5.20
2019-03-21T03:34:56.433Z,5.20
2019-03-21T03:37:26.613Z,5.20
2019-03-21T03:39:57.266Z,5.20
2019-03-21T03:42:27.899Z,5.20
2019-03-21T03:44:58.781Z,5.10
2019-03-21T03:47:28.925Z,5.10
2019-03-21T03:49:59.069Z,5.10
2019-03-21T03:52:30.490Z,5.10
2019-03-21T03:55:00.785Z,5.20
2019-03-21T03:57:31.249Z,5.10
2019-03-21T04:00:01.410Z,5.00
2019-03-21T04:02:31.762Z,5.00
2019-03-21T04:05:02.350Z,5.00
2019-03-21T04:07:32.655Z,5.00
2019-03-21T04:10:03.278Z,5.00
2019-03-21T04:12:33.761Z,5.00
2019-03-21T04:15:04.484Z,5.00
2019-03-21T04:17:35.176Z,5.00
2019-03-21T04:20:05.990Z,4.90
2019-03-21T04:22:36.749Z,4.90
2019-03-21T04:25:08.148Z,4.90
2019-03-21T04:27:38.870Z,4.90
2019-03-21T04:30:11.040Z,4.80
2019-03-21T04:32:41.653Z,4.90
2019-03-21T04:35:12.525Z,4.90
2019-03-21T04:37:42.937Z,4.90
2019-03-21T04:40:13.901Z,4.80
2019-03-21T04:42:44.177Z,4.60
2019-03-21T04:45:16.955Z,4.80
2019-03-21T04:47:47.593Z,4.80
2019-03-21T04:50:20.681Z,4.80
2019-03-21T04:52:51.283Z,4.80
2019-03-21T04:55:22.379Z,4.70
2019-03-21T04:57:52.836Z,4.70
2019-03-21T05:00:25.684Z,4.70
2019-03-21T05:02:58.367Z,4.70
2019-03-21T05:05:28.736Z,4.60
2019-03-21T05:07:59.048Z,4.60
2019-03-21T05:10:32.274Z,4.60
2019-03-21T05:13:02.836Z,4.60
2019-03-21T05:15:37.735Z,4.50
2019-03-21T05:18:11.056Z,4.50
2019-03-21T05:20:41.976Z,4.50
2019-03-21T05:23:12.418Z,4.50
2019-03-21T05:25:42.745Z,4.50
2019-03-21T05:28:13.337Z,4.50
2019-03-21T05:30:49.964Z,4.60
2019-03-21T05:33:20.328Z,4.60
2019-03-21T05:35:51.018Z,4.50
2019-03-21T05:38:21.718Z,4.50
2019-03-21T05:40:52.202Z,4.50
2019-03-21T05:43:29.022Z,4.60
2019-03-21T05:45:59.295Z,4.60
2019-03-21T05:48:29.640Z,4.70
2019-03-21T05:50:59.996Z,4.70
2019-03-21T05:53:30.190Z,4.70
2019-03-21T05:56:01.236Z,4.80
2019-03-21T05:58:31.535Z,4.80
2019-03-21T06:01:01.991Z,4.80
2019-03-21T06:03:35.281Z,4.90
2019-03-21T06:06:12.524Z,4.90
2019-03-21T06:08:43.389Z,5.00
2019-03-21T06:11:13.781Z,5.00
2019-03-21T06:13:44.509Z,5.10
2019-03-21T06:16:14.796Z,5.10
2019-03-21T06:19:10.266Z,5.20
2019-03-21T06:22:01.784Z,5.20
2019-03-21T06:25:02.931Z,5.40
2019-03-21T06:27:33.326Z,5.40
2019-03-21T06:30:03.818Z,5.40
2019-03-21T06:32:34.151Z,5.50
2019-03-21T06:35:04.739Z,5.50
2019-03-21T06:37:35.257Z,5.60
2019-03-21T06:40:05.979Z,5.70
2019-03-21T06:42:38.870Z,5.60
2019-03-21T06:45:08.757Z,5.70
2019-03-21T06:47:39.098Z,5.80
2019-03-21T06:50:09.549Z,5.90
2019-03-21T06:52:40.219Z,6.00
2019-03-21T06:55:10.779Z,6.10
2019-03-21T06:57:41.040Z,6.10
2019-03-21T07:00:12.185Z,6.20
2019-03-21T07:02:42.664Z,6.30
2019-03-21T07:05:13.713Z,6.40
2019-03-21T07:07:44.164Z,6.60
2019-03-21T07:10:14.622Z,6.70
2019-03-21T07:12:45.593Z,6.80
2019-03-21T07:15:15.908Z,6.80
2019-03-21T07:17:46.228Z,7.10
2019-03-21T07:20:15.681Z,8.30
2019-03-21T07:22:44.875Z,9.80
2019-03-21T07:25:15.412Z,10.40
2019-03-21T07:27:44.614Z,11.10
2019-03-21T07:30:15.285Z,11.30
2019-03-21T07:32:45.605Z,12.20
2019-03-21T07:35:16.309Z,12.60
2019-03-21T07:37:46.828Z,13.60
2019-03-21T07:40:16.044Z,14.00
2019-03-21T07:42:45.003Z,14.70
2019-03-21T07:45:15.184Z,15.50
2019-03-21T07:47:45.519Z,16.00
2019-03-21T07:50:16.214Z,15.10
2019-03-21T07:52:45.474Z,15.30
2019-03-21T07:55:16.091Z,16.00
2019-03-21T07:57:46.840Z,15.80
2019-03-21T08:00:17.263Z,16.80
2019-03-21T08:02:47.656Z,17.20
2019-03-21T08:05:19.194Z,16.90
2019-03-21T08:07:50.002Z,16.90
2019-03-21T08:10:20.429Z,18.00
2019-03-21T08:12:50.696Z,17.90
2019-03-21T08:15:20.946Z,17.90
2019-03-21T08:17:52.624Z,18.00
2019-03-21T08:20:22.979Z,18.00
2019-03-21T08:22:53.246Z,18.50
2019-03-21T08:25:23.994Z,18.40
2019-03-21T08:27:54.574Z,18.90
2019-03-21T08:30:37.173Z,18.80
2019-03-21T08:33:07.759Z,18.10
2019-03-21T08:35:38.126Z,18.70
2019-03-21T08:38:08.456Z,19.30
2019-03-21T08:40:39.145Z,18.90
2019-03-21T08:43:09.530Z,18.80
2019-03-21T08:45:38.639Z,19.40
2019-03-21T08:48:07.524Z,21.10
2019-03-21T08:50:36.823Z,22.40
2019-03-21T19:17:45.992Z,10.20
2019-03-21T19:22:46.011Z,10.40
2019-03-21T19:25:19.672Z,10.60
2019-03-21T19:27:49.334Z,10.50
2019-03-21T19:30:20.632Z,10.50
2019-03-21T19:32:51.955Z,10.50
2019-03-21T19:35:22.470Z,10.40
2019-03-21T19:37:53.053Z,10.30
2019-03-21T19:40:23.819Z,10.30
2019-03-21T19:42:54.502Z,10.30
2019-03-21T19:57:53.869Z,10.10
2019-03-21T20:00:24.199Z,10.00
2019-03-21T20:02:54.819Z,10.00
2019-03-21T20:05:25.468Z,10.00
2019-03-21T20:07:55.923Z,10.00
2019-03-21T20:10:26.790Z,10.00
2019-03-21T20:12:57.457Z,9.90
2019-03-21T20:15:27.639Z,9.90
2019-03-21T20:17:57.936Z,9.90
2019-03-21T20:20:30.899Z,10.00
2019-03-21T20:23:00.327Z,9.90
2019-03-21T20:25:41.904Z,9.80
2019-03-21T20:28:02.959Z,9.80
2019-03-21T20:30:33.657Z,9.80
2019-03-21T20:33:04.478Z,9.80
2019-03-21T20:35:35.279Z,9.70
2019-03-21T20:38:05.712Z,9.70
2019-03-21T20:40:35.913Z,9.70
2019-03-21T20:43:06.575Z,9.60
2019-03-21T20:45:36.988Z,9.60
2019-03-21T20:48:07.622Z,9.60
2019-03-21T20:50:37.931Z,9.50
2019-03-21T20:53:08.305Z,9.50
2019-03-21T20:55:38.674Z,9.60
2019-03-21T20:58:09.191Z,9.60
2019-03-21T21:00:40.245Z,9.50
2019-03-21T21:03:11.030Z,9.50
2019-03-21T21:05:41.953Z,9.30
2019-03-21T21:08:13.283Z,9.20
2019-03-21T21:10:44.102Z,9.20
2019-03-21T21:13:14.703Z,9.00
2019-03-21T21:15:45.001Z,8.90
2019-03-21T21:18:15.251Z,8.90
2019-03-21T21:20:45.634Z,8.90
2019-03-21T21:23:16.303Z,8.90
2019-03-21T21:25:46.856Z,9.00
2019-03-21T21:28:17.315Z,9.00
2019-03-21T21:30:47.987Z,9.00
2019-03-21T21:33:18.487Z,9.00
2019-03-21T21:35:48.854Z,8.80
2019-03-21T21:38:19.113Z,8.80
2019-03-21T21:40:49.504Z,8.80
2019-03-21T21:43:19.858Z,8.80
2019-03-21T21:45:50.599Z,8.80
2019-03-21T21:48:21.131Z,8.80
2019-03-21T21:50:51.526Z,8.70
2019-03-21T21:53:22.167Z,8.70
2019-03-21T21:55:52.590Z,8.70
2019-03-21T21:58:22.983Z,8.70
2019-03-21T22:00:53.400Z,8.70
2019-03-21T22:03:23.691Z,8.70
2019-03-21T22:05:54.511Z,8.60
2019-03-21T22:08:25.323Z,8.50
2019-03-21T22:10:56.096Z,8.50
2019-03-21T22:13:26.752Z,8.40
2019-03-21T22:15:57.629Z,8.40
2019-03-21T22:18:27.936Z,8.40
2019-03-21T22:20:58.265Z,8.40
2019-03-21T22:23:28.717Z,8.40
2019-03-21T22:25:59.252Z,8.30
2019-03-21T22:28:29.629Z,8.20
2019-03-21T22:31:00.087Z,8.10
2019-03-21T22:33:30.950Z,8.00
2019-03-21T22:36:01.449Z,7.90
2019-03-21T22:38:32.999Z,7.90
2019-03-21T22:41:03.334Z,7.90
2019-03-21T22:43:34.418Z,7.80
2019-03-21T22:46:05.607Z,7.80
2019-03-21T22:48:36.408Z,7.80
2019-03-21T22:51:07.070Z,7.80
2019-03-21T22:53:37.507Z,7.70
2019-03-21T22:56:08.207Z,7.60
2019-03-21T22:58:38.483Z,7.60
2019-03-21T23:01:08.732Z,7.50
2019-03-21T23:03:39.004Z,7.50
2019-03-21T23:06:09.297Z,7.50
2019-03-21T23:08:39.656Z,7.50
2019-03-21T23:11:10.212Z,7.50
2019-03-21T23:13:40.788Z,7.50
2019-03-21T23:16:11.154Z,7.50
2019-03-21T23:18:41.464Z,7.50
2019-03-21T23:21:12.845Z,7.40
2019-03-21T23:23:43.519Z,7.40
2019-03-21T23:26:14.136Z,7.30
2019-03-21T23:28:45.424Z,7.30
2019-03-21T23:31:16.116Z,7.30
2019-03-21T23:33:46.540Z,7.30
2019-03-21T23:36:17.562Z,7.40
2019-03-21T23:38:48.038Z,7.30
2019-03-21T23:41:19.068Z,7.20
2019-03-21T23:43:50.210Z,7.10
2019-03-21T23:46:20.575Z,7.10
2019-03-21T23:48:51.466Z,7.00
2019-03-21T23:51:21.792Z,7.00
2019-03-21T23:53:52.513Z,7.00
2019-03-21T23:56:22.830Z,7.00
2019-03-21T23:58:53.181Z,7.00
